sensor_id;sensor_type;location;lat;lon;timestamp;temperature;humidity
21522;DHT22;10922;45.572;10.002;2023-05-21T00:42:05;16.40;1.00
21522;DHT22;10922;45.572;10.002;2023-05-21T00:44:31;16.40;1.00
21522;DHT22;10922;45.572;10.002;2023-05-21T00:47:03;16.40;1.00
21522;DHT22;10922;45.572;10.002;2023-05-21T00:49:29;16.40;1.00
21522;DHT22;10922;45.572;10.002;2023-05-21T00:51:56;16.40;1.00
21522;DHT22;10922;45.572;10.002;2023-05-21T00:54:22;16.50;1.00
21522;DHT22;10922;45.572;10.002;2023-05-21T00:56:48;16.40;1.00
21522;DHT22;10922;45.572;10.002;2023-05-21T00:59:15;16.50;1.00
21522;DHT22;10922;45.572;10.002;2023-05-21T01:01:43;16.50;1.00
21522;DHT22;10922;45.572;10.002;2023-05-21T01:04:10;16.40;1.00
21522;DHT22;10922;45.572;10.002;2023-05-21T01:06:36;16.50;1.00
21522;DHT22;10922;45.572;10.002;2023-05-21T01:09:03;16.50;1.00
21522;DHT22;10922;45.572;10.002;2023-05-21T01:11:42;16.50;1.00
21522;DHT22;10922;45.572;10.002;2023-05-21T01:14:10;16.50;1.00
21522;DHT22;10922;45.572;10.002;2023-05-21T01:16:38;16.50;1.00
21522;DHT22;10922;45.572;10.002;2023-05-21T01:19:05;16.50;1.00
21522;DHT22;10922;45.572;10.002;2023-05-21T01:21:36;16.50;1.00
21522;DHT22;10922;45.572;10.002;2023-05-21T01:24:05;16.50;1.00
21522;DHT22;10922;45.572;10.002;2023-05-21T01:26:32;16.50;1.00
21522;DHT22;10922;45.572;10.002;2023-05-21T01:29:03;16.50;1.00
21522;DHT22;10922;45.572;10.002;2023-05-21T01:34:13;16.50;1.00
21522;DHT22;10922;45.572;10.002;2023-05-21T01:36:48;16.50;1.00
21522;DHT22;10922;45.572;10.002;2023-05-21T01:39:24;16.50;1.00
21522;DHT22;10922;45.572;10.002;2023-05-21T01:41:52;16.50;1.00
21522;DHT22;10922;45.572;10.002;2023-05-21T01:44:19;16.50;1.00
21522;DHT22;10922;45.572;10.002;2023-05-21T01:46:45;16.50;1.00
21522;DHT22;10922;45.572;10.002;2023-05-21T01:49:11;16.60;1.00
21522;DHT22;10922;45.572;10.002;2023-05-21T01:51:38;16.50;1.00
21522;DHT22;10922;45.572;10.002;2023-05-21T01:54:04;16.50;1.00
21522;DHT22;10922;45.572;10.002;2023-05-21T01:56:29;16.50;1.00
21522;DHT22;10922;45.572;10.002;2023-05-21T01:58:58;16.50;1.00
21522;DHT22;10922;45.572;10.002;2023-05-21T02:01:25;16.40;1.00
21522;DHT22;10922;45.572;10.002;2023-05-21T02:03:51;16.40;1.00
21522;DHT22;10922;45.572;10.002;2023-05-21T02:06:17;16.40;1.00
21522;DHT22;10922;45.572;10.002;2023-05-21T02:08:42;16.40;1.00
21522;DHT22;10922;45.572;10.002;2023-05-21T02:11:10;16.40;1.00
21522;DHT22;10922;45.572;10.002;2023-05-21T02:13:35;16.50;1.00
21522;DHT22;10922;45.572;10.002;2023-05-21T02:16:06;16.60;1.00
21522;DHT22;10922;45.572;10.002;2023-05-21T02:18:37;16.70;1.00
21522;DHT22;10922;45.572;10.002;2023-05-21T02:21:03;16.50;1.00
21522;DHT22;10922;45.572;10.002;2023-05-21T02:23:28;16.50;1.00
21522;DHT22;10922;45.572;10.002;2023-05-21T02:25:54;16.40;1.00
21522;DHT22;10922;45.572;10.002;2023-05-21T02:28:19;16.30;1.00
21522;DHT22;10922;45.572;10.002;2023-05-21T02:30:45;16.30;1.00
21522;DHT22;10922;45.572;10.002;2023-05-21T02:33:13;16.20;1.00
21522;DHT22;10922;45.572;10.002;2023-05-21T02:35:39;16.30;1.00
21522;DHT22;10922;45.572;10.002;2023-05-21T02:38:06;16.30;1.00
21522;DHT22;10922;45.572;10.002;2023-05-21T02:40:33;16.30;1.00
21522;DHT22;10922;45.572;10.002;2023-05-21T02:42:59;16.20;1.00
21522;DHT22;10922;45.572;10.002;2023-05-21T02:45:25;16.20;1.00
21522;DHT22;10922;45.572;10.002;2023-05-21T02:47:50;16.10;1.00
21522;DHT22;10922;45.572;10.002;2023-05-21T02:50:16;16.10;1.00
21522;DHT22;10922;45.572;10.002;2023-05-21T02:52:41;16.00;1.00
21522;DHT22;10922;45.572;10.002;2023-05-21T02:55:08;16.10;1.00
21522;DHT22;10922;45.572;10.002;2023-05-21T02:57:33;16.10;1.00
21522;DHT22;10922;45.572;10.002;2023-05-21T02:59:59;16.00;1.00
21522;DHT22;10922;45.572;10.002;2023-05-21T03:02:25;16.10;1.00
21522;DHT22;10922;45.572;10.002;2023-05-21T03:04:50;16.10;1.00
21522;DHT22;10922;45.572;10.002;2023-05-21T03:07:16;16.00;1.00
21522;DHT22;10922;45.572;10.002;2023-05-21T03:09:45;16.00;1.00
21522;DHT22;10922;45.572;10.002;2023-05-21T03:12:11;16.00;1.00
21522;DHT22;10922;45.572;10.002;2023-05-21T03:14:37;15.90;1.00
21522;DHT22;10922;45.572;10.002;2023-05-21T03:17:03;15.80;1.00
21522;DHT22;10922;45.572;10.002;2023-05-21T03:19:32;15.80;1.00
21522;DHT22;10922;45.572;10.002;2023-05-21T03:22:02;15.90;1.00
21522;DHT22;10922;45.572;10.002;2023-05-21T03:24:28;15.90;1.00
21522;DHT22;10922;45.572;10.002;2023-05-21T03:26:58;15.90;1.00
21522;DHT22;10922;45.572;10.002;2023-05-21T03:29:25;15.90;1.00
21522;DHT22;10922;45.572;10.002;2023-05-21T03:31:52;16.00;1.00
21522;DHT22;10922;45.572;10.002;2023-05-21T03:34:18;16.10;1.00
21522;DHT22;10922;45.572;10.002;2023-05-21T03:36:45;16.10;1.00
21522;DHT22;10922;45.572;10.002;2023-05-21T03:39:11;16.10;1.00
21522;DHT22;10922;45.572;10.002;2023-05-21T03:41:36;16.10;1.00
21522;DHT22;10922;45.572;10.002;2023-05-21T03:44:02;16.00;1.00
21522;DHT22;10922;45.572;10.002;2023-05-21T03:46:29;16.00;1.00
21522;DHT22;10922;45.572;10.002;2023-05-21T03:48:55;16.00;1.00
21522;DHT22;10922;45.572;10.002;2023-05-21T03:51:22;16.00;1.00
21522;DHT22;10922;45.572;10.002;2023-05-21T03:53:49;15.90;1.00
21522;DHT22;10922;45.572;10.002;2023-05-21T03:56:15;15.90;1.00
21522;DHT22;10922;45.572;10.002;2023-05-21T03:58:41;15.90;1.00
21522;DHT22;10922;45.572;10.002;2023-05-21T04:01:07;15.80;1.00
21522;DHT22;10922;45.572;10.002;2023-05-21T04:03:33;15.90;1.00
21522;DHT22;10922;45.572;10.002;2023-05-21T04:06:00;15.90;1.00
21522;DHT22;10922;45.572;10.002;2023-05-21T04:08:26;15.90;1.00
21522;DHT22;10922;45.572;10.002;2023-05-21T04:10:51;16.00;1.00
21522;DHT22;10922;45.572;10.002;2023-05-21T04:13:17;16.00;1.00
21522;DHT22;10922;45.572;10.002;2023-05-21T04:15:43;16.00;1.00
21522;DHT22;10922;45.572;10.002;2023-05-21T04:18:14;16.00;1.00
21522;DHT22;10922;45.572;10.002;2023-05-21T04:20:44;16.00;1.00
21522;DHT22;10922;45.572;10.002;2023-05-21T04:23:10;16.10;1.00
21522;DHT22;10922;45.572;10.002;2023-05-21T04:25:36;16.10;1.00
21522;DHT22;10922;45.572;10.002;2023-05-21T04:28:03;16.20;1.00
21522;DHT22;10922;45.572;10.002;2023-05-21T04:30:28;16.20;1.00
21522;DHT22;10922;45.572;10.002;2023-05-21T04:32:54;16.20;1.00
21522;DHT22;10922;45.572;10.002;2023-05-21T04:35:20;16.20;1.00
21522;DHT22;10922;45.572;10.002;2023-05-21T04:37:45;16.30;1.00
21522;DHT22;10922;45.572;10.002;2023-05-21T04:40:12;16.30;1.00
21522;DHT22;10922;45.572;10.002;2023-05-21T04:42:43;16.30;1.00
21522;DHT22;10922;45.572;10.002;2023-05-21T04:45:09;16.20;1.00
21522;DHT22;10922;45.572;10.002;2023-05-21T04:47:35;16.20;1.00
21522;DHT22;10922;45.572;10.002;2023-05-21T04:50:02;16.30;1.00
21522;DHT22;10922;45.572;10.002;2023-05-21T04:52:29;16.30;1.00
21522;DHT22;10922;45.572;10.002;2023-05-21T04:54:55;16.30;1.00
21522;DHT22;10922;45.572;10.002;2023-05-21T04:57:21;16.40;1.00
21522;DHT22;10922;45.572;10.002;2023-05-21T04:59:49;16.40;1.00
21522;DHT22;10922;45.572;10.002;2023-05-21T05:02:14;16.40;1.00
21522;DHT22;10922;45.572;10.002;2023-05-21T05:04:40;16.40;1.00
21522;DHT22;10922;45.572;10.002;2023-05-21T05:07:08;16.40;1.00
21522;DHT22;10922;45.572;10.002;2023-05-21T05:09:34;16.40;1.00
21522;DHT22;10922;45.572;10.002;2023-05-21T05:11:59;16.40;1.00
21522;DHT22;10922;45.572;10.002;2023-05-21T05:14:25;16.50;1.00
21522;DHT22;10922;45.572;10.002;2023-05-21T05:16:51;16.50;1.00
21522;DHT22;10922;45.572;10.002;2023-05-21T05:19:19;16.50;1.00
21522;DHT22;10922;45.572;10.002;2023-05-21T05:21:45;16.50;1.00
21522;DHT22;10922;45.572;10.002;2023-05-21T05:24:10;16.50;1.00
21522;DHT22;10922;45.572;10.002;2023-05-21T05:26:36;16.50;1.00
21522;DHT22;10922;45.572;10.002;2023-05-21T05:29:02;16.50;1.00
21522;DHT22;10922;45.572;10.002;2023-05-21T05:31:27;16.50;1.00
21522;DHT22;10922;45.572;10.002;2023-05-21T05:33:54;16.60;1.00
21522;DHT22;10922;45.572;10.002;2023-05-21T05:36:20;16.60;1.00
21522;DHT22;10922;45.572;10.002;2023-05-21T05:38:48;16.60;1.00
21522;DHT22;10922;45.572;10.002;2023-05-21T05:41:13;16.70;1.00
21522;DHT22;10922;45.572;10.002;2023-05-21T05:43:39;16.80;1.00
21522;DHT22;10922;45.572;10.002;2023-05-21T05:46:05;16.80;1.00
21522;DHT22;10922;45.572;10.002;2023-05-21T05:48:30;16.80;1.00
21522;DHT22;10922;45.572;10.002;2023-05-21T05:50:56;16.80;1.00
21522;DHT22;10922;45.572;10.002;2023-05-21T05:53:22;16.90;1.00
21522;DHT22;10922;45.572;10.002;2023-05-21T05:55:47;16.90;1.00
21522;DHT22;10922;45.572;10.002;2023-05-21T05:58:13;16.90;1.00
21522;DHT22;10922;45.572;10.002;2023-05-21T06:00:39;16.90;1.00
21522;DHT22;10922;45.572;10.002;2023-05-21T06:03:04;16.90;1.00
21522;DHT22;10922;45.572;10.002;2023-05-21T06:05:30;16.90;1.00
21522;DHT22;10922;45.572;10.002;2023-05-21T06:07:56;16.90;1.00
21522;DHT22;10922;45.572;10.002;2023-05-21T06:10:22;16.90;1.00
21522;DHT22;10922;45.572;10.002;2023-05-21T06:12:47;16.90;1.00
21522;DHT22;10922;45.572;10.002;2023-05-21T06:15:13;16.90;1.00
21522;DHT22;10922;45.572;10.002;2023-05-21T06:17:43;16.90;1.00
21522;DHT22;10922;45.572;10.002;2023-05-21T06:20:09;16.90;1.00
21522;DHT22;10922;45.572;10.002;2023-05-21T06:22:36;17.00;1.00
21522;DHT22;10922;45.572;10.002;2023-05-21T06:25:02;17.00;1.00
21522;DHT22;10922;45.572;10.002;2023-05-21T06:27:27;17.00;1.00
21522;DHT22;10922;45.572;10.002;2023-05-21T06:29:53;17.10;1.00
21522;DHT22;10922;45.572;10.002;2023-05-21T06:32:18;17.20;1.00
21522;DHT22;10922;45.572;10.002;2023-05-21T06:34:45;17.30;1.00
21522;DHT22;10922;45.572;10.002;2023-05-21T06:37:11;17.40;1.00
21522;DHT22;10922;45.572;10.002;2023-05-21T06:39:37;17.60;1.00
21522;DHT22;10922;45.572;10.002;2023-05-21T06:42:02;17.70;1.00
21522;DHT22;10922;45.572;10.002;2023-05-21T06:44:28;17.90;1.00
21522;DHT22;10922;45.572;10.002;2023-05-21T06:46:54;18.10;1.00
21522;DHT22;10922;45.572;10.002;2023-05-21T06:49:20;18.20;1.00
21522;DHT22;10922;45.572;10.002;2023-05-21T06:51:46;18.40;1.00
21522;DHT22;10922;45.572;10.002;2023-05-21T06:54:12;18.40;1.00
21522;DHT22;10922;45.572;10.002;2023-05-21T06:56:37;18.40;1.00
21522;DHT22;10922;45.572;10.002;2023-05-21T06:59:03;18.50;1.00
21522;DHT22;10922;45.572;10.002;2023-05-21T07:01:29;18.40;1.00
21522;DHT22;10922;45.572;10.002;2023-05-21T07:03:55;18.50;1.00
21522;DHT22;10922;45.572;10.002;2023-05-21T07:06:20;18.40;1.00
21522;DHT22;10922;45.572;10.002;2023-05-21T07:08:46;18.40;1.00
21522;DHT22;10922;45.572;10.002;2023-05-21T07:11:14;18.40;1.00
21522;DHT22;10922;45.572;10.002;2023-05-21T07:13:40;18.40;1.00
21522;DHT22;10922;45.572;10.002;2023-05-21T07:16:06;18.40;1.00
21522;DHT22;10922;45.572;10.002;2023-05-21T07:18:32;18.50;1.00
21522;DHT22;10922;45.572;10.002;2023-05-21T07:20:58;18.80;1.00
21522;DHT22;10922;45.572;10.002;2023-05-21T07:23:23;18.70;1.00
21522;DHT22;10922;45.572;10.002;2023-05-21T07:25:49;18.70;1.00
21522;DHT22;10922;45.572;10.002;2023-05-21T07:28:15;18.80;99.90
21522;DHT22;10922;45.572;10.002;2023-05-21T07:30:40;18.90;99.90
21522;DHT22;10922;45.572;10.002;2023-05-21T07:33:06;18.90;99.90
21522;DHT22;10922;45.572;10.002;2023-05-21T07:35:32;18.80;99.90
21522;DHT22;10922;45.572;10.002;2023-05-21T07:37:58;18.70;99.90
21522;DHT22;10922;45.572;10.002;2023-05-21T07:40:23;18.40;99.90
21522;DHT22;10922;45.572;10.002;2023-05-21T07:42:49;18.40;99.90
21522;DHT22;10922;45.572;10.002;2023-05-21T07:45:15;18.20;99.90
21522;DHT22;10922;45.572;10.002;2023-05-21T07:47:41;18.20;99.90
21522;DHT22;10922;45.572;10.002;2023-05-21T07:50:07;18.10;99.90
21522;DHT22;10922;45.572;10.002;2023-05-21T07:52:32;18.00;99.90
21522;DHT22;10922;45.572;10.002;2023-05-21T07:54:59;18.10;99.90
21522;DHT22;10922;45.572;10.002;2023-05-21T07:57:26;18.00;99.90
21522;DHT22;10922;45.572;10.002;2023-05-21T07:59:52;18.10;1.00
21522;DHT22;10922;45.572;10.002;2023-05-21T08:02:18;18.10;1.00
21522;DHT22;10922;45.572;10.002;2023-05-21T08:04:43;18.30;1.00
21522;DHT22;10922;45.572;10.002;2023-05-21T08:07:09;18.40;1.00
21522;DHT22;10922;45.572;10.002;2023-05-21T08:09:35;18.40;1.00
21522;DHT22;10922;45.572;10.002;2023-05-21T08:12:01;18.40;1.00
21522;DHT22;10922;45.572;10.002;2023-05-21T08:14:26;18.10;1.00
21522;DHT22;10922;45.572;10.002;2023-05-21T08:16:52;17.70;1.00
21522;DHT22;10922;45.572;10.002;2023-05-21T08:19:17;17.60;1.00
21522;DHT22;10922;45.572;10.002;2023-05-21T08:21:43;17.70;1.00
21522;DHT22;10922;45.572;10.002;2023-05-21T08:24:09;17.90;1.00
21522;DHT22;10922;45.572;10.002;2023-05-21T08:26:35;17.90;1.00
21522;DHT22;10922;45.572;10.002;2023-05-21T08:29:00;17.80;1.00
21522;DHT22;10922;45.572;10.002;2023-05-21T08:31:26;17.90;1.00
21522;DHT22;10922;45.572;10.002;2023-05-21T08:33:53;18.00;1.00
21522;DHT22;10922;45.572;10.002;2023-05-21T08:36:20;18.10;1.00
21522;DHT22;10922;45.572;10.002;2023-05-21T08:38:47;18.30;1.00
21522;DHT22;10922;45.572;10.002;2023-05-21T08:41:13;18.30;1.00
21522;DHT22;10922;45.572;10.002;2023-05-21T08:43:41;18.50;1.00
21522;DHT22;10922;45.572;10.002;2023-05-21T08:46:08;18.70;1.00
21522;DHT22;10922;45.572;10.002;2023-05-21T08:48:35;18.80;1.00
21522;DHT22;10922;45.572;10.002;2023-05-21T08:51:01;18.90;1.00
21522;DHT22;10922;45.572;10.002;2023-05-21T08:53:28;19.10;1.00
21522;DHT22;10922;45.572;10.002;2023-05-21T08:55:54;19.20;1.00
21522;DHT22;10922;45.572;10.002;2023-05-21T08:58:23;19.40;1.00
21522;DHT22;10922;45.572;10.002;2023-05-21T09:00:48;19.30;1.00
21522;DHT22;10922;45.572;10.002;2023-05-21T09:03:14;19.30;1.00
21522;DHT22;10922;45.572;10.002;2023-05-21T09:05:41;19.50;1.00
21522;DHT22;10922;45.572;10.002;2023-05-21T09:10:48;20.20;1.00
21522;DHT22;10922;45.572;10.002;2023-05-21T09:13:16;20.60;1.00
21522;DHT22;10922;45.572;10.002;2023-05-21T09:15:43;20.70;99.90
21522;DHT22;10922;45.572;10.002;2023-05-21T09:18:10;20.80;99.90
21522;DHT22;10922;45.572;10.002;2023-05-21T09:20:35;21.00;99.90
21522;DHT22;10922;45.572;10.002;2023-05-21T09:23:03;21.00;99.90
21522;DHT22;10922;45.572;10.002;2023-05-21T09:25:29;21.40;99.90
21522;DHT22;10922;45.572;10.002;2023-05-21T09:27:55;21.40;99.90
21522;DHT22;10922;45.572;10.002;2023-05-21T09:30:21;21.50;99.90
21522;DHT22;10922;45.572;10.002;2023-05-21T09:32:54;21.30;99.90
21522;DHT22;10922;45.572;10.002;2023-05-21T09:35:20;21.10;99.90
21522;DHT22;10922;45.572;10.002;2023-05-21T09:37:47;21.40;99.90
21522;DHT22;10922;45.572;10.002;2023-05-21T09:40:20;21.40;99.90
21522;DHT22;10922;45.572;10.002;2023-05-21T09:42:53;21.60;99.90
21522;DHT22;10922;45.572;10.002;2023-05-21T09:45:24;21.90;99.90
21522;DHT22;10922;45.572;10.002;2023-05-21T09:47:52;22.10;99.90
21522;DHT22;10922;45.572;10.002;2023-05-21T09:50:27;22.20;99.90
21522;DHT22;10922;45.572;10.002;2023-05-21T09:52:53;22.50;99.90
21522;DHT22;10922;45.572;10.002;2023-05-21T09:55:24;22.70;99.90
21522;DHT22;10922;45.572;10.002;2023-05-21T09:57:52;23.00;99.90
21522;DHT22;10922;45.572;10.002;2023-05-21T10:00:19;23.20;99.90
21522;DHT22;10922;45.572;10.002;2023-05-21T10:02:47;23.10;99.90
21522;DHT22;10922;45.572;10.002;2023-05-21T10:05:14;22.90;99.90
21522;DHT22;10922;45.572;10.002;2023-05-21T10:07:47;22.90;99.90
21522;DHT22;10922;45.572;10.002;2023-05-21T10:10:14;23.00;99.90
21522;DHT22;10922;45.572;10.002;2023-05-21T10:12:43;23.00;99.90
21522;DHT22;10922;45.572;10.002;2023-05-21T10:15:16;23.30;99.90
21522;DHT22;10922;45.572;10.002;2023-05-21T10:17:46;23.20;99.90
21522;DHT22;10922;45.572;10.002;2023-05-21T10:20:13;23.30;99.90
21522;DHT22;10922;45.572;10.002;2023-05-21T10:22:39;23.30;99.90
21522;DHT22;10922;45.572;10.002;2023-05-21T10:25:07;23.50;99.90
21522;DHT22;10922;45.572;10.002;2023-05-21T10:27:34;23.60;99.90
21522;DHT22;10922;45.572;10.002;2023-05-21T10:30:01;23.80;99.90
21522;DHT22;10922;45.572;10.002;2023-05-21T10:32:27;23.40;99.90
21522;DHT22;10922;45.572;10.002;2023-05-21T10:34:53;23.30;99.90
21522;DHT22;10922;45.572;10.002;2023-05-21T10:37:22;23.50;99.90
21522;DHT22;10922;45.572;10.002;2023-05-21T10:39:48;23.60;99.90
21522;DHT22;10922;45.572;10.002;2023-05-21T10:51:06;23.80;99.90
21522;DHT22;10922;45.572;10.002;2023-05-21T10:57:33;23.70;99.90
21522;DHT22;10922;45.572;10.002;2023-05-21T10:59:47;23.90;99.90
21522;DHT22;10922;45.572;10.002;2023-05-21T11:02:18;24.10;99.90
21522;DHT22;10922;45.572;10.002;2023-05-21T11:04:45;23.80;99.90
21522;DHT22;10922;45.572;10.002;2023-05-21T11:07:22;24.00;99.90
21522;DHT22;10922;45.572;10.002;2023-05-21T11:09:51;24.30;99.90
21522;DHT22;10922;45.572;10.002;2023-05-21T11:12:25;24.20;99.90
21522;DHT22;10922;45.572;10.002;2023-05-21T11:14:56;24.30;99.90
21522;DHT22;10922;45.572;10.002;2023-05-21T11:17:40;24.40;99.90
21522;DHT22;10922;45.572;10.002;2023-05-21T11:20:12;24.50;99.90
21522;DHT22;10922;45.572;10.002;2023-05-21T11:22:38;24.70;99.90
21522;DHT22;10922;45.572;10.002;2023-05-21T11:25:04;23.40;99.90
21522;DHT22;10922;45.572;10.002;2023-05-21T11:27:37;23.60;99.90
21522;DHT22;10922;45.572;10.002;2023-05-21T11:32:39;23.70;99.90
21522;DHT22;10922;45.572;10.002;2023-05-21T11:35:05;23.70;99.90
21522;DHT22;10922;45.572;10.002;2023-05-21T11:37:32;23.70;99.90
21522;DHT22;10922;45.572;10.002;2023-05-21T14:06:50;34.40;99.90
21522;DHT22;10922;45.572;10.002;2023-05-21T14:09:16;35.40;99.90
21522;DHT22;10922;45.572;10.002;2023-05-21T14:11:42;36.90;99.90
21522;DHT22;10922;45.572;10.002;2023-05-21T14:14:08;35.60;99.90
21522;DHT22;10922;45.572;10.002;2023-05-21T14:16:34;34.50;99.90
21522;DHT22;10922;45.572;10.002;2023-05-21T14:18:59;33.60;99.90
21522;DHT22;10922;45.572;10.002;2023-05-21T14:21:25;35.10;99.90
21522;DHT22;10922;45.572;10.002;2023-05-21T14:23:51;31.30;99.90
21522;DHT22;10922;45.572;10.002;2023-05-21T14:26:17;31.50;99.90
21522;DHT22;10922;45.572;10.002;2023-05-21T14:28:43;30.00;99.90
21522;DHT22;10922;45.572;10.002;2023-05-21T14:31:10;31.40;99.90
21522;DHT22;10922;45.572;10.002;2023-05-21T14:33:37;33.60;99.90
21522;DHT22;10922;45.572;10.002;2023-05-21T14:36:04;35.60;99.90
21522;DHT22;10922;45.572;10.002;2023-05-21T14:38:30;33.00;99.90
21522;DHT22;10922;45.572;10.002;2023-05-21T14:40:55;32.10;99.90
21522;DHT22;10922;45.572;10.002;2023-05-21T14:43:21;35.30;99.90
21522;DHT22;10922;45.572;10.002;2023-05-21T14:45:50;35.40;99.90
21522;DHT22;10922;45.572;10.002;2023-05-21T14:48:16;33.00;99.90
21522;DHT22;10922;45.572;10.002;2023-05-21T14:50:43;31.60;99.90
21522;DHT22;10922;45.572;10.002;2023-05-21T14:53:10;31.10;99.90
21522;DHT22;10922;45.572;10.002;2023-05-21T14:55:36;32.60;99.90
21522;DHT22;10922;45.572;10.002;2023-05-21T14:58:03;32.80;99.90
21522;DHT22;10922;45.572;10.002;2023-05-21T15:00:29;31.00;99.90
21522;DHT22;10922;45.572;10.002;2023-05-21T15:02:56;33.80;99.90
21522;DHT22;10922;45.572;10.002;2023-05-21T15:05:22;34.50;99.90
21522;DHT22;10922;45.572;10.002;2023-05-21T15:07:48;35.10;99.90
21522;DHT22;10922;45.572;10.002;2023-05-21T15:10:14;35.20;99.90
21522;DHT22;10922;45.572;10.002;2023-05-21T15:12:40;35.40;99.90
21522;DHT22;10922;45.572;10.002;2023-05-21T15:15:07;34.10;99.90
21522;DHT22;10922;45.572;10.002;2023-05-21T15:17:33;34.90;99.90
21522;DHT22;10922;45.572;10.002;2023-05-21T15:20:00;34.50;99.90
21522;DHT22;10922;45.572;10.002;2023-05-21T15:22:26;36.10;99.90
21522;DHT22;10922;45.572;10.002;2023-05-21T15:24:52;34.80;99.90
21522;DHT22;10922;45.572;10.002;2023-05-21T15:27:17;32.40;99.90
21522;DHT22;10922;45.572;10.002;2023-05-21T15:29:43;34.30;99.90
21522;DHT22;10922;45.572;10.002;2023-05-21T15:32:10;32.90;99.90
21522;DHT22;10922;45.572;10.002;2023-05-21T15:34:36;31.70;99.90
21522;DHT22;10922;45.572;10.002;2023-05-21T15:37:01;30.50;99.90
21522;DHT22;10922;45.572;10.002;2023-05-21T15:39:27;31.70;99.90
21522;DHT22;10922;45.572;10.002;2023-05-21T15:41:53;30.10;99.90
21522;DHT22;10922;45.572;10.002;2023-05-21T15:44:19;29.80;99.90
21522;DHT22;10922;45.572;10.002;2023-05-21T15:46:45;30.00;99.90
21522;DHT22;10922;45.572;10.002;2023-05-21T15:49:14;29.80;99.90
21522;DHT22;10922;45.572;10.002;2023-05-21T15:51:40;28.30;99.90
21522;DHT22;10922;45.572;10.002;2023-05-21T15:54:06;27.50;99.90
21522;DHT22;10922;45.572;10.002;2023-05-21T15:56:31;27.30;99.90
21522;DHT22;10922;45.572;10.002;2023-05-21T15:58:57;27.10;99.90
21522;DHT22;10922;45.572;10.002;2023-05-21T16:01:26;25.80;99.90
21522;DHT22;10922;45.572;10.002;2023-05-21T16:03:53;25.30;99.90
21522;DHT22;10922;45.572;10.002;2023-05-21T16:06:18;25.30;99.90
21522;DHT22;10922;45.572;10.002;2023-05-21T16:08:44;26.70;99.90
21522;DHT22;10922;45.572;10.002;2023-05-21T16:11:10;26.10;99.90
21522;DHT22;10922;45.572;10.002;2023-05-21T16:13:36;26.10;99.90
21522;DHT22;10922;45.572;10.002;2023-05-21T16:16:02;30.10;99.90
21522;DHT22;10922;45.572;10.002;2023-05-21T16:18:27;30.50;99.90
21522;DHT22;10922;45.572;10.002;2023-05-21T16:20:56;29.80;99.90
21522;DHT22;10922;45.572;10.002;2023-05-21T16:23:22;32.80;99.90
21522;DHT22;10922;45.572;10.002;2023-05-21T16:25:48;31.90;99.90
21522;DHT22;10922;45.572;10.002;2023-05-21T16:28:14;30.00;99.90
21522;DHT22;10922;45.572;10.002;2023-05-21T16:30:39;31.70;99.90
21522;DHT22;10922;45.572;10.002;2023-05-21T16:33:05;33.10;99.90
21522;DHT22;10922;45.572;10.002;2023-05-21T16:35:31;33.80;99.90
21522;DHT22;10922;45.572;10.002;2023-05-21T16:37:57;34.40;99.90
21522;DHT22;10922;45.572;10.002;2023-05-21T16:40:23;33.30;99.90
21522;DHT22;10922;45.572;10.002;2023-05-21T16:42:49;34.20;99.90
21522;DHT22;10922;45.572;10.002;2023-05-21T16:45:14;34.00;99.90
21522;DHT22;10922;45.572;10.002;2023-05-21T16:47:47;34.10;99.90
21522;DHT22;10922;45.572;10.002;2023-05-21T16:50:13;34.90;99.90
21522;DHT22;10922;45.572;10.002;2023-05-21T16:52:39;33.20;99.90
21522;DHT22;10922;45.572;10.002;2023-05-21T16:55:05;32.20;99.90
21522;DHT22;10922;45.572;10.002;2023-05-21T16:57:30;31.50;99.90
21522;DHT22;10922;45.572;10.002;2023-05-21T16:59:56;33.00;99.90
21522;DHT22;10922;45.572;10.002;2023-05-21T17:02:22;31.80;99.90
21522;DHT22;10922;45.572;10.002;2023-05-21T17:04:49;31.70;99.90
21522;DHT22;10922;45.572;10.002;2023-05-21T17:07:15;32.50;99.90
21522;DHT22;10922;45.572;10.002;2023-05-21T17:09:41;33.90;99.90
21522;DHT22;10922;45.572;10.002;2023-05-21T17:12:07;34.20;99.90
21522;DHT22;10922;45.572;10.002;2023-05-21T17:14:33;35.30;99.90
21522;DHT22;10922;45.572;10.002;2023-05-21T17:16:58;35.40;99.90
21522;DHT22;10922;45.572;10.002;2023-05-21T17:19:24;35.00;99.90
21522;DHT22;10922;45.572;10.002;2023-05-21T17:21:50;33.20;99.90
21522;DHT22;10922;45.572;10.002;2023-05-21T17:24:15;33.50;99.90
21522;DHT22;10922;45.572;10.002;2023-05-21T17:26:41;33.90;99.90
21522;DHT22;10922;45.572;10.002;2023-05-21T17:29:06;34.60;99.90
21522;DHT22;10922;45.572;10.002;2023-05-21T17:31:32;33.20;99.90
21522;DHT22;10922;45.572;10.002;2023-05-21T17:33:58;31.40;99.90
21522;DHT22;10922;45.572;10.002;2023-05-21T17:36:24;31.50;99.90
21522;DHT22;10922;45.572;10.002;2023-05-21T17:38:50;31.30;99.90
21522;DHT22;10922;45.572;10.002;2023-05-21T17:41:16;31.00;99.90
21522;DHT22;10922;45.572;10.002;2023-05-21T17:43:44;30.90;99.90
21522;DHT22;10922;45.572;10.002;2023-05-21T17:46:09;29.30;99.90
21522;DHT22;10922;45.572;10.002;2023-05-21T17:48:35;28.30;99.90
21522;DHT22;10922;45.572;10.002;2023-05-21T17:51:01;28.10;99.90
21522;DHT22;10922;45.572;10.002;2023-05-21T17:53:27;27.60;99.90
21522;DHT22;10922;45.572;10.002;2023-05-21T17:55:52;27.70;99.90
21522;DHT22;10922;45.572;10.002;2023-05-21T17:58:18;26.90;99.90
21522;DHT22;10922;45.572;10.002;2023-05-21T18:00:43;26.20;99.90
21522;DHT22;10922;45.572;10.002;2023-05-21T18:03:09;26.20;99.90
21522;DHT22;10922;45.572;10.002;2023-05-21T18:05:35;25.80;99.90
21522;DHT22;10922;45.572;10.002;2023-05-21T18:08:01;25.50;99.90
21522;DHT22;10922;45.572;10.002;2023-05-21T18:10:27;25.40;99.90
21522;DHT22;10922;45.572;10.002;2023-05-21T18:12:53;25.10;99.90
21522;DHT22;10922;45.572;10.002;2023-05-21T18:15:18;24.70;99.90
21522;DHT22;10922;45.572;10.002;2023-05-21T18:17:45;24.10;99.90
21522;DHT22;10922;45.572;10.002;2023-05-21T18:20:11;23.80;99.90
21522;DHT22;10922;45.572;10.002;2023-05-21T18:22:37;23.60;99.90
21522;DHT22;10922;45.572;10.002;2023-05-21T18:25:03;23.60;99.90
21522;DHT22;10922;45.572;10.002;2023-05-21T18:27:29;23.50;99.90
21522;DHT22;10922;45.572;10.002;2023-05-21T18:29:54;23.30;99.90
21522;DHT22;10922;45.572;10.002;2023-05-21T18:32:21;22.80;99.90
21522;DHT22;10922;45.572;10.002;2023-05-21T18:34:47;22.80;99.90
21522;DHT22;10922;45.572;10.002;2023-05-21T18:37:13;22.80;99.90
21522;DHT22;10922;45.572;10.002;2023-05-21T18:39:39;22.60;99.90
21522;DHT22;10922;45.572;10.002;2023-05-21T18:42:05;22.50;99.90
21522;DHT22;10922;45.572;10.002;2023-05-21T18:44:30;22.20;99.90
21522;DHT22;10922;45.572;10.002;2023-05-21T18:46:57;22.10;99.90